Time,TemperatureF,DewpointF,PressureIn,WindDirection,WindDirectionDegrees,WindSpeedMPH,WindSpeedGustMPH,Humidity,HourlyPrecipIn,Conditions,Clouds,dailyrainin,SoftwareType,DateUTC
2013-03-11 00:04:00,50.0,45.4,28.97,SW,225,13.0,13.0,84,0.00,RA,,0.00,WeatherDisplay:10.37,2013-03-11 05:04:00,
2013-03-11 00:09:00,49.6,45.3,28.97,SW,229,13.0,13.0,85,0.00,RA,,0.00,WeatherDisplay:10.37,2013-03-11 05:09:00,
2013-03-11 00:14:00,49.5,45.1,28.97,WSW,239,14.0,14.0,85,0.00,OVC,,0.00,WeatherDisplay:10.37,2013-03-11 05:14:00,
2013-03-11 00:19:00,49.5,45.1,28.97,WSW,244,14.0,14.0,85,0.00,OVC,,0.00,WeatherDisplay:10.37,2013-03-11 05:19:00,
2013-03-11 00:24:00,48.9,44.6,28.97,WSW,247,14.0,14.0,85,0.00,OVC,,0.00,WeatherDisplay:10.37,2013-03-11 05:24:00,
2013-03-11 00:29:00,49.1,44.8,28.94,WSW,254,14.0,14.0,85,0.00,OVC,,0.00,WeatherDisplay:10.37,2013-03-11 05:29:00,
2013-03-11 00:34:00,48.7,44.1,28.97,West,264,14.0,14.0,84,0.00,OVC,,0.00,WeatherDisplay:10.37,2013-03-11 05:34:00,
2013-03-11 00:39:00,48.7,44.1,28.97,West,265,14.0,14.0,84,0.00,OVC,,0.00,WeatherDisplay:10.37,2013-03-11 05:39:00,
2013-03-11 00:44:00,48.6,43.6,28.97,West,269,14.0,14.0,83,0.00,OVC,,0.00,WeatherDisplay:10.37,2013-03-11 05:44:00,
2013-03-11 00:49:00,48.7,43.8,28.97,West,266,14.0,14.0,83,0.00,OVC,,0.00,WeatherDisplay:10.37,2013-03-11 05:49:00,
2013-03-11 00:54:00,48.7,43.8,28.97,West,267,14.0,14.0,83,0.00,OVC,,0.00,WeatherDisplay:10.37,2013-03-11 05:54:00,
2013-03-11 00:59:00,48.4,43.5,28.97,West,275,13.0,14.0,83,0.00,OVC,,0.00,WeatherDisplay:10.37,2013-03-11 05:59:00,
2013-03-11 01:04:00,47.8,42.9,28.97,West,280,13.0,13.0,83,0.00,OVC,,0.00,WeatherDisplay:10.37,2013-03-11 06:04:00,
2013-03-11 01:09:00,47.3,42.4,28.97,West,277,13.0,13.0,83,0.00,OVC,,0.00,WeatherDisplay:10.37,2013-03-11 06:09:00,
2013-03-11 01:14:00,47.1,42.2,28.97,West,273,12.0,12.0,83,0.00,OVC,,0.00,WeatherDisplay:10.37,2013-03-11 06:14:00,
2013-03-11 01:19:00,46.6,41.7,28.97,West,276,12.0,12.0,83,0.00,OVC,,0.00,WeatherDisplay:10.37,2013-03-11 06:19:00,
2013-03-11 01:24:00,46.8,41.6,28.97,West,273,12.0,12.0,82,0.00,OVC,,0.00,WeatherDisplay:10.37,2013-03-11 06:24:00,
2013-03-11 01:29:00,46.4,41.2,28.97,West,268,10.0,12.0,82,0.00,OVC,,0.00,WeatherDisplay:10.37,2013-03-11 06:29:00,
2013-03-11 01:34:00,46.9,42.0,28.97,West,271,10.0,11.0,83,0.00,BKN,,0.00,WeatherDisplay:10.37,2013-03-11 06:34:00,
2013-03-11 01:39:00,46.9,42.0,28.97,West,270,10.0,11.0,83,0.00,BKN,,0.00,WeatherDisplay:10.37,2013-03-11 06:39:00,
2013-03-11 01:44:00,46.6,41.7,28.97,West,263,10.0,11.0,83,0.00,BKN,,0.00,WeatherDisplay:10.37,2013-03-11 06:44:00,
2013-03-11 01:49:00,46.4,41.2,28.97,WSW,257,9.0,10.0,82,0.00,OVC,,0.00,WeatherDisplay:10.37,2013-03-11 06:49:00,
2013-03-11 01:54:00,46.4,41.2,28.97,WSW,257,9.0,10.0,82,0.00,OVC,,0.00,WeatherDisplay:10.37,2013-03-11 06:54:00,
2013-03-11 02:04:00,45.5,40.3,28.97,West,262,9.0,10.0,82,0.00,OVC,,0.00,WeatherDisplay:10.37,2013-03-11 07:04:00,
2013-03-11 02:09:00,45.5,40.0,28.97,West,264,10.0,10.0,81,0.00,OVC,,0.00,WeatherDisplay:10.37,2013-03-11 07:09:00,
2013-03-11 02:14:00,45.5,40.0,28.97,West,267,10.0,11.0,81,0.00,OVC,,0.00,WeatherDisplay:10.37,2013-03-11 07:14:00,
2013-03-11 02:19:00,45.3,39.5,28.97,West,274,12.0,12.0,80,0.00,OVC,,0.00,WeatherDisplay:10.37,2013-03-11 07:19:00,
2013-03-11 02:24:00,45.3,39.5,28.97,West,275,12.0,12.0,80,0.00,OVC,,0.00,WeatherDisplay:10.37,2013-03-11 07:24:00,
2013-03-11 02:29:00,45.0,39.5,28.97,West,275,12.0,12.0,81,0.00,OVC,,0.00,WeatherDisplay:10.37,2013-03-11 07:29:00,
2013-03-11 02:34:00,44.6,38.8,28.97,West,273,13.0,13.0,80,0.00,OVC,,0.00,WeatherDisplay:10.37,2013-03-11 07:34:00,
2013-03-11 02:39:00,44.4,39.0,28.97,West,272,13.0,13.0,81,0.00,OVC,,0.00,WeatherDisplay:10.37,2013-03-11 07:39:00,
2013-03-11 02:44:00,44.2,38.8,28.97,West,271,14.0,14.0,81,0.00,OVC,,0.00,WeatherDisplay:10.37,2013-03-11 07:44:00,
2013-03-11 02:49:00,44.2,38.8,28.97,West,270,14.0,14.0,81,0.00,OVC,,0.00,WeatherDisplay:10.37,2013-03-11 07:49:00,
2013-03-11 02:54:00,44.1,38.6,28.97,West,270,14.0,14.0,81,0.00,OVC,,0.00,WeatherDisplay:10.37,2013-03-11 07:54:00,
2013-03-11 02:59:00,44.1,38.6,28.97,West,268,14.0,14.0,81,0.00,OVC,,0.00,WeatherDisplay:10.37,2013-03-11 07:59:00,
2013-03-11 03:04:00,43.9,38.4,28.97,West,271,14.0,14.0,81,0.00,OVC,,0.00,WeatherDisplay:10.37,2013-03-11 08:04:00,
2013-03-11 03:09:00,43.7,38.3,28.97,West,276,15.0,15.0,81,0.00,OVC,,0.00,WeatherDisplay:10.37,2013-03-11 08:09:00,
2013-03-11 03:14:00,43.3,37.9,28.97,WNW,282,15.0,15.0,81,0.00,OVC,,0.00,WeatherDisplay:10.37,2013-03-11 08:14:00,
2013-03-11 03:19:00,43.0,37.5,28.97,West,281,15.0,15.0,81,0.00,OVC,,0.00,WeatherDisplay:10.37,2013-03-11 08:19:00,
2013-03-11 03:24:00,42.8,37.4,28.97,West,281,15.0,15.0,81,0.00,OVC,,0.00,WeatherDisplay:10.37,2013-03-11 08:24:00,
2013-03-11 03:29:00,42.3,37.2,28.97,WNW,283,15.0,16.0,82,0.00,OVC,,0.00,WeatherDisplay:10.37,2013-03-11 08:29:00,
2013-03-11 03:34:00,41.7,36.6,28.97,West,280,16.0,16.0,82,0.00,OVC,,0.00,WeatherDisplay:10.37,2013-03-11 08:34:00,
2013-03-11 03:39:00,41.5,36.5,28.94,West,278,16.0,16.0,82,0.00,OVC,,0.00,WeatherDisplay:10.37,2013-03-11 08:39:00,
2013-03-11 03:44:00,41.4,36.3,28.94,West,278,16.0,16.0,82,0.00,OVC,,0.00,WeatherDisplay:10.37,2013-03-11 08:44:00,
2013-03-11 03:49:00,41.2,36.1,28.94,West,280,16.0,16.0,82,0.00,OVC,,0.00,WeatherDisplay:10.37,2013-03-11 08:49:00,
2013-03-11 03:54:00,41.2,36.1,28.94,West,281,16.0,16.0,82,0.00,OVC,,0.00,WeatherDisplay:10.37,2013-03-11 08:54:00,
2013-03-11 03:59:00,41.0,35.9,28.94,West,280,15.0,15.0,82,0.00,OVC,,0.00,WeatherDisplay:10.37,2013-03-11 08:59:00,
2013-03-11 04:04:00,41.0,35.9,28.94,West,274,15.0,15.0,82,0.00,OVC,,0.00,WeatherDisplay:10.37,2013-03-11 09:04:00,
2013-03-11 04:09:00,41.0,35.9,28.94,West,272,15.0,15.0,82,0.00,OVC,,0.00,WeatherDisplay:10.37,2013-03-11 09:09:00,
2013-03-11 04:14:00,40.6,35.9,28.94,West,280,14.0,15.0,83,0.00,OVC,,0.00,WeatherDisplay:10.37,2013-03-11 09:14:00,
2013-03-11 04:19:00,40.3,35.5,28.94,WNW,292,14.0,14.0,83,0.00,OVC,,0.00,WeatherDisplay:10.37,2013-03-11 09:19:00,
2013-03-11 04:24:00,40.3,35.5,28.94,WNW,287,14.0,14.0,83,0.00,OVC,,0.00,WeatherDisplay:10.37,2013-03-11 09:24:00,
2013-03-11 04:29:00,40.1,35.7,28.94,West,276,14.0,14.0,84,0.00,OVC,,0.00,WeatherDisplay:10.37,2013-03-11 09:29:00,
2013-03-11 04:34:00,39.9,35.5,28.94,West,274,14.0,14.0,84,0.00,OVC,,0.00,WeatherDisplay:10.37,2013-03-11 09:34:00,
2013-03-11 04:39:00,39.9,35.5,28.97,West,274,14.0,14.0,84,0.00,OVC,,0.00,WeatherDisplay:10.37,2013-03-11 09:39:00,
2013-03-11 04:44:00,39.7,35.3,28.97,West,271,15.0,15.0,84,0.00,OVC,,0.00,WeatherDisplay:10.37,2013-03-11 09:44:00,
2013-03-11 04:49:00,39.9,35.5,28.94,West,272,15.0,15.0,84,0.00,OVC,,0.00,WeatherDisplay:10.37,2013-03-11 09:49:00,
2013-03-11 04:54:00,39.7,35.3,28.94,West,271,15.0,15.0,84,0.00,OVC,,0.00,WeatherDisplay:10.37,2013-03-11 09:54:00,
2013-03-11 04:59:00,39.6,35.1,28.97,West,266,15.0,15.0,84,0.00,OVC,,0.00,WeatherDisplay:10.37,2013-03-11 09:59:00,
2013-03-11 05:04:00,39.2,34.5,28.97,West,266,16.0,16.0,83,0.00,OVC,,0.00,WeatherDisplay:10.37,2013-03-11 10:04:00,
2013-03-11 05:09:00,39.2,34.5,28.97,West,270,16.0,16.0,83,0.00,OVC,,0.00,WeatherDisplay:10.37,2013-03-11 10:09:00,
2013-03-11 05:14:00,39.0,34.3,28.97,West,266,16.0,16.0,83,0.00,OVC,,0.00,WeatherDisplay:10.37,2013-03-11 10:14:00,
2013-03-11 05:19:00,38.8,34.1,28.97,West,265,16.0,16.0,83,0.00,OVC,,0.00,WeatherDisplay:10.37,2013-03-11 10:19:00,
2013-03-11 05:24:00,38.8,34.1,28.97,West,269,16.0,16.0,83,0.00,OVC,,0.00,WeatherDisplay:10.37,2013-03-11 10:24:00,
2013-03-11 05:29:00,38.7,33.6,28.97,West,270,17.0,17.0,82,0.00,OVC,,0.00,WeatherDisplay:10.37,2013-03-11 10:29:00,
2013-03-11 05:34:00,38.5,33.5,28.97,West,268,16.0,17.0,82,0.00,OVC,,0.00,WeatherDisplay:10.37,2013-03-11 10:34:00,
2013-03-11 05:39:00,38.5,33.5,28.97,West,268,16.0,17.0,82,0.00,OVC,,0.00,WeatherDisplay:10.37,2013-03-11 10:39:00,
2013-03-11 05:44:00,38.3,33.3,28.97,West,270,17.0,17.0,82,0.00,OVC,,0.00,WeatherDisplay:10.37,2013-03-11 10:44:00,
2013-03-11 05:49:00,38.3,33.3,28.97,West,273,17.0,17.0,82,0.00,OVC,,0.00,WeatherDisplay:10.37,2013-03-11 10:49:00,
2013-03-11 05:54:00,38.1,33.1,28.97,West,275,17.0,17.0,82,0.00,OVC,,0.00,WeatherDisplay:10.37,2013-03-11 10:54:00,
2013-03-11 05:59:00,38.1,33.1,28.97,West,275,16.0,17.0,82,0.00,OVC,,0.00,WeatherDisplay:10.37,2013-03-11 10:59:00,
2013-03-11 06:04:00,38.1,33.1,28.97,West,266,16.0,17.0,82,0.00,OVC,,0.00,WeatherDisplay:10.37,2013-03-11 11:04:00,
2013-03-11 06:09:00,37.9,32.9,28.97,West,262,16.0,16.0,82,0.00,OVC,,0.00,WeatherDisplay:10.37,2013-03-11 11:09:00,
2013-03-11 06:14:00,37.9,32.9,28.97,West,261,15.0,15.0,82,0.00,OVC,,0.00,WeatherDisplay:10.37,2013-03-11 11:14:00,
2013-03-11 06:19:00,37.8,32.8,28.97,West,261,15.0,15.0,82,0.00,OVC,,0.00,WeatherDisplay:10.37,2013-03-11 11:19:00,
2013-03-11 06:24:00,37.2,32.5,28.97,West,261,15.0,15.0,83,0.00,OVC,,0.00,WeatherDisplay:10.37,2013-03-11 11:24:00,
2013-03-11 06:29:00,37.0,32.1,28.97,West,264,16.0,16.0,82,0.00,OVC,,0.00,WeatherDisplay:10.37,2013-03-11 11:29:00,
2013-03-11 06:34:00,37.0,32.1,29.00,West,261,16.0,16.0,82,0.00,OVC,,0.00,WeatherDisplay:10.37,2013-03-11 11:34:00,
2013-03-11 06:39:00,36.9,31.9,29.00,West,261,16.0,16.0,82,0.00,OVC,,0.00,WeatherDisplay:10.37,2013-03-11 11:39:00,
2013-03-11 06:44:00,36.7,31.7,29.00,West,263,17.0,17.0,82,0.00,OVC,,0.00,WeatherDisplay:10.37,2013-03-11 11:44:00,
2013-03-11 06:49:00,36.5,31.5,29.00,West,260,17.0,17.0,82,0.00,OVC,,0.00,WeatherDisplay:10.37,2013-03-11 11:49:00,
2013-03-11 06:54:00,36.5,31.5,29.00,West,264,17.0,17.0,82,0.00,OVC,,0.00,WeatherDisplay:10.37,2013-03-11 11:54:00,
2013-03-11 06:59:00,36.7,31.7,28.97,West,265,17.0,17.0,82,0.00,OVC,,0.00,WeatherDisplay:10.37,2013-03-11 11:59:00,
2013-03-11 07:04:00,36.3,31.4,28.97,West,265,17.0,17.0,82,0.00,OVC,,0.00,WeatherDisplay:10.37,2013-03-11 12:04:00,
2013-03-11 07:09:00,36.1,31.2,28.97,West,268,17.0,17.0,82,0.00,OVC,,0.00,WeatherDisplay:10.37,2013-03-11 12:09:00,
2013-03-11 07:14:00,36.0,31.0,28.97,West,265,17.0,17.0,82,0.00,OVC,,0.00,WeatherDisplay:10.37,2013-03-11 12:14:00,
2013-03-11 07:19:00,35.8,30.8,28.97,West,260,17.0,17.0,82,0.00,OVC,,0.00,WeatherDisplay:10.37,2013-03-11 12:19:00,
2013-03-11 07:24:00,36.0,31.0,28.97,West,262,16.0,17.0,82,0.00,OVC,,0.00,WeatherDisplay:10.37,2013-03-11 12:24:00,
2013-03-11 07:29:00,35.8,30.8,28.97,West,270,16.0,16.0,82,0.00,OVC,,0.00,WeatherDisplay:10.37,2013-03-11 12:29:00,
2013-03-11 07:34:00,35.8,30.8,28.97,West,272,16.0,16.0,82,0.00,OVC,,0.00,WeatherDisplay:10.37,2013-03-11 12:34:00,
2013-03-11 07:39:00,35.6,30.6,28.97,West,269,16.0,16.0,82,0.00,OVC,,0.00,WeatherDisplay:10.37,2013-03-11 12:39:00,
2013-03-11 07:44:00,35.4,30.5,28.97,West,269,17.0,17.0,82,0.00,OVC,,0.00,WeatherDisplay:10.37,2013-03-11 12:44:00,
2013-03-11 07:49:00,35.2,30.3,28.97,West,265,17.0,17.0,82,0.00,OVC,,0.00,WeatherDisplay:10.37,2013-03-11 12:49:00,
2013-03-11 07:54:00,35.2,30.3,28.97,West,264,17.0,17.0,82,0.00,OVC,,0.00,WeatherDisplay:10.37,2013-03-11 12:54:00,
2013-03-11 07:59:00,35.2,30.6,29.00,West,260,16.0,17.0,83,0.00,OVC,,0.00,WeatherDisplay:10.37,2013-03-11 12:59:00,
2013-03-11 08:04:00,35.2,30.3,29.00,West,260,16.0,17.0,82,0.00,OVC,,0.00,WeatherDisplay:10.37,2013-03-11 13:04:00,
2013-03-11 08:09:00,35.2,30.3,29.00,West,262,16.0,16.0,82,0.00,OVC,,0.00,WeatherDisplay:10.37,2013-03-11 13:09:00,
2013-03-11 08:14:00,35.2,30.3,29.00,West,260,16.0,16.0,82,0.00,OVC,,0.00,WeatherDisplay:10.37,2013-03-11 13:14:00,
2013-03-11 08:19:00,35.4,30.5,29.00,West,264,16.0,16.0,82,0.00,OVC,,0.00,WeatherDisplay:10.37,2013-03-11 13:19:00,
2013-03-11 08:24:00,35.4,30.5,29.00,West,267,16.0,16.0,82,0.00,OVC,,0.00,WeatherDisplay:10.37,2013-03-11 13:24:00,
2013-03-11 08:29:00,35.4,30.5,29.00,West,270,16.0,16.0,82,0.00,OVC,,0.00,WeatherDisplay:10.37,2013-03-11 13:29:00,
2013-03-11 08:34:00,35.2,30.3,29.00,West,268,16.0,16.0,82,0.00,OVC,,0.00,WeatherDisplay:10.37,2013-03-11 13:34:00,
2013-03-11 08:39:00,35.1,29.8,29.00,West,266,16.0,16.0,81,0.00,OVC,,0.00,WeatherDisplay:10.37,2013-03-11 13:39:00,
2013-03-11 08:44:00,35.2,30.0,29.00,West,261,16.0,17.0,81,0.00,OVC,,0.00,WeatherDisplay:10.37,2013-03-11 13:44:00,
2013-03-11 08:49:00,35.2,30.0,29.00,West,271,17.0,17.0,81,0.00,OVC,,0.00,WeatherDisplay:10.37,2013-03-11 13:49:00,
2013-03-11 08:54:00,35.2,30.0,29.00,West,275,16.0,17.0,81,0.00,OVC,,0.00,WeatherDisplay:10.37,2013-03-11 13:54:00,
2013-03-11 08:59:00,35.2,30.0,29.00,West,273,16.0,17.0,81,0.00,OVC,,0.00,WeatherDisplay:10.37,2013-03-11 13:59:00,
2013-03-11 09:04:00,35.1,29.8,29.00,West,276,16.0,17.0,81,0.00,OVC,,0.00,WeatherDisplay:10.37,2013-03-11 14:04:00,
2013-03-11 09:09:00,35.1,29.8,29.00,West,276,16.0,17.0,81,0.00,OVC,,0.00,WeatherDisplay:10.37,2013-03-11 14:09:00,
2013-03-11 09:14:00,35.1,29.8,29.00,West,271,17.0,17.0,81,0.00,OVC,,0.00,WeatherDisplay:10.37,2013-03-11 14:14:00,
2013-03-11 09:19:00,34.9,29.3,29.00,West,270,17.0,17.0,80,0.00,OVC,,0.00,WeatherDisplay:10.37,2013-03-11 14:19:00,
2013-03-11 09:24:00,34.9,29.3,29.00,West,272,17.0,17.0,80,0.00,OVC,,0.00,WeatherDisplay:10.37,2013-03-11 14:24:00,
2013-03-11 09:29:00,34.9,29.3,29.00,West,273,18.0,18.0,80,0.00,OVC,,0.00,WeatherDisplay:10.37,2013-03-11 14:29:00,
2013-03-11 09:39:00,34.9,29.3,29.00,West,268,18.0,18.0,80,0.00,OVC,,0.00,WeatherDisplay:10.37,2013-03-11 14:39:00,
2013-03-11 09:44:00,35.1,29.5,29.00,West,266,18.0,19.0,80,0.00,OVC,,0.00,WeatherDisplay:10.37,2013-03-11 14:44:00,
2013-03-11 09:49:00,35.1,29.5,29.00,West,263,18.0,19.0,80,0.00,OVC,,0.00,WeatherDisplay:10.37,2013-03-11 14:49:00,
2013-03-11 09:54:00,34.9,29.3,29.00,West,266,18.0,19.0,80,0.00,OVC,,0.00,WeatherDisplay:10.37,2013-03-11 14:54:00,
2013-03-11 09:59:00,34.7,29.2,29.00,West,270,20.0,20.0,80,0.00,OVC,,0.00,WeatherDisplay:10.37,2013-03-11 14:59:00,
2013-03-11 10:04:00,34.9,29.3,29.00,West,268,20.0,20.0,80,0.00,OVC,,0.00,WeatherDisplay:10.37,2013-03-11 15:04:00,
2013-03-11 10:09:00,35.1,29.5,29.00,West,271,20.0,20.0,80,0.00,OVC,,0.00,WeatherDisplay:10.37,2013-03-11 15:09:00,
2013-03-11 10:14:00,34.9,29.3,29.00,West,275,20.0,20.0,80,0.00,OVC,,0.00,WeatherDisplay:10.37,2013-03-11 15:14:00,
2013-03-11 10:19:00,35.2,30.0,29.00,West,273,20.0,20.0,81,0.00,OVC,,0.00,WeatherDisplay:10.37,2013-03-11 15:19:00,
2013-03-11 10:24:00,35.2,30.0,29.00,West,272,20.0,20.0,81,0.00,OVC,,0.00,WeatherDisplay:10.37,2013-03-11 15:24:00,
2013-03-11 10:29:00,35.2,30.0,29.00,West,271,20.0,20.0,81,0.00,OVC,,0.00,WeatherDisplay:10.37,2013-03-11 15:29:00,
2013-03-11 10:34:00,35.1,29.8,29.00,West,270,20.0,20.0,81,0.00,OVC,,0.00,WeatherDisplay:10.37,2013-03-11 15:34:00,
2013-03-11 10:39:00,35.1,29.8,29.00,West,270,20.0,20.0,81,0.00,OVC,,0.00,WeatherDisplay:10.37,2013-03-11 15:39:00,
2013-03-11 10:44:00,35.1,29.8,29.00,West,269,20.0,20.0,81,0.00,OVC,,0.00,WeatherDisplay:10.37,2013-03-11 15:44:00,
2013-03-11 10:49:00,35.4,30.2,29.00,West,270,20.0,20.0,81,0.00,OVC,,0.00,WeatherDisplay:10.37,2013-03-11 15:49:00,
2013-03-11 10:54:00,35.6,30.0,29.00,West,270,20.0,20.0,80,0.00,OVC,,0.00,WeatherDisplay:10.37,2013-03-11 15:54:00,
2013-03-11 11:04:00,36.0,30.1,29.00,West,270,21.0,21.0,79,0.00,OVC,,0.00,WeatherDisplay:10.37,2013-03-11 16:04:00,
2013-03-11 11:09:00,36.0,30.1,29.00,West,268,21.0,21.0,79,0.00,OVC,,0.00,WeatherDisplay:10.37,2013-03-11 16:09:00,
2013-03-11 11:14:00,35.8,29.6,29.00,West,268,21.0,21.0,78,0.00,OVC,,0.00,WeatherDisplay:10.37,2013-03-11 16:14:00,
2013-03-11 11:19:00,36.3,29.8,29.00,West,274,21.0,21.0,77,0.00,OVC,,0.00,WeatherDisplay:10.37,2013-03-11 16:19:00,
2013-03-11 11:24:00,36.3,29.8,29.00,West,277,21.0,21.0,77,0.00,OVC,,0.00,WeatherDisplay:10.37,2013-03-11 16:24:00,
2013-03-11 11:29:00,36.0,28.8,29.00,West,274,21.0,21.0,75,0.00,OVC,,0.00,WeatherDisplay:10.37,2013-03-11 16:29:00,
2013-03-11 11:34:00,36.1,29.0,29.00,West,270,21.0,21.0,75,0.00,OVC,,0.00,WeatherDisplay:10.37,2013-03-11 16:34:00,
2013-03-11 11:39:00,36.0,28.8,29.00,West,269,21.0,21.0,75,0.00,OVC,,0.00,WeatherDisplay:10.37,2013-03-11 16:39:00,
2013-03-11 11:44:00,35.2,28.4,29.00,West,268,21.0,21.0,76,0.00,OVC,,0.00,WeatherDisplay:10.37,2013-03-11 16:44:00,
2013-03-11 11:49:00,35.6,28.5,29.00,West,270,21.0,21.0,75,0.00,OVC,,0.00,WeatherDisplay:10.37,2013-03-11 16:49:00,
2013-03-11 11:54:00,35.6,28.8,29.00,West,272,21.0,21.0,76,0.00,OVC,,0.00,WeatherDisplay:10.37,2013-03-11 16:54:00,
2013-03-11 11:59:00,35.4,28.6,29.00,West,269,21.0,21.0,76,0.00,OVC,,0.00,WeatherDisplay:10.37,2013-03-11 16:59:00,
2013-03-11 12:04:00,35.2,28.4,29.00,West,265,21.0,21.0,76,0.00,OVC,,0.00,WeatherDisplay:10.37,2013-03-11 17:04:00,
2013-03-11 12:14:00,35.2,28.4,29.00,West,271,21.0,21.0,76,0.00,OVC,,0.00,WeatherDisplay:10.37,2013-03-11 17:14:00,
2013-03-11 12:19:00,35.1,28.3,29.00,West,270,22.0,22.0,76,0.00,OVC,,0.00,WeatherDisplay:10.37,2013-03-11 17:19:00,
2013-03-11 12:24:00,35.1,28.3,29.00,West,272,22.0,22.0,76,0.00,OVC,,0.00,WeatherDisplay:10.37,2013-03-11 17:24:00,
2013-03-11 12:34:00,35.2,28.4,29.00,West,269,22.0,22.0,76,0.00,OVC,,0.00,WeatherDisplay:10.37,2013-03-11 17:34:00,
2013-03-11 12:39:00,35.1,28.3,29.00,West,272,22.0,22.0,76,0.00,OVC,,0.00,WeatherDisplay:10.37,2013-03-11 17:39:00,
2013-03-11 12:44:00,35.2,28.4,29.00,West,275,22.0,22.0,76,0.00,OVC,,0.00,WeatherDisplay:10.37,2013-03-11 17:44:00,
2013-03-11 12:49:00,35.4,28.6,29.00,West,273,22.0,22.0,76,0.00,OVC,,0.00,WeatherDisplay:10.37,2013-03-11 17:49:00,
2013-03-11 12:54:00,35.4,28.6,29.00,West,272,22.0,22.0,76,0.00,OVC,,0.00,WeatherDisplay:10.37,2013-03-11 17:54:00,
2013-03-11 12:59:00,35.4,28.6,29.00,West,278,21.0,21.0,76,0.00,OVC,,0.00,WeatherDisplay:10.37,2013-03-11 17:59:00,
2013-03-11 13:04:00,35.4,28.3,29.00,West,278,21.0,21.0,75,0.00,OVC,,0.00,WeatherDisplay:10.37,2013-03-11 18:04:00,
2013-03-11 13:09:00,35.6,28.1,29.00,West,277,21.0,21.0,74,0.00,OVC,,0.00,WeatherDisplay:10.37,2013-03-11 18:09:00,
2013-03-11 13:14:00,35.8,28.3,29.00,West,275,21.0,21.0,74,0.00,OVC,,0.00,WeatherDisplay:10.37,2013-03-11 18:14:00,
2013-03-11 13:19:00,35.4,28.0,29.00,West,275,21.0,21.0,74,0.00,OVC,,0.00,WeatherDisplay:10.37,2013-03-11 18:19:00,
2013-03-11 13:24:00,35.6,27.8,29.00,West,275,21.0,21.0,73,0.00,OVC,,0.00,WeatherDisplay:10.37,2013-03-11 18:24:00,
2013-03-11 13:29:00,35.8,28.3,29.00,West,275,21.0,21.0,74,0.00,OVC,,0.00,WeatherDisplay:10.37,2013-03-11 18:29:00,
2013-03-11 13:34:00,35.6,28.1,29.00,West,275,21.0,21.0,74,0.00,OVC,,0.00,WeatherDisplay:10.37,2013-03-11 18:34:00,
2013-03-11 13:39:00,35.2,28.1,29.00,West,275,21.0,21.0,75,0.00,OVC,,0.00,WeatherDisplay:10.37,2013-03-11 18:39:00,
2013-03-11 13:44:00,35.4,28.3,29.00,West,273,21.0,21.0,75,0.00,OVC,,0.00,WeatherDisplay:10.37,2013-03-11 18:44:00,
2013-03-11 13:49:00,35.4,28.6,29.00,West,270,21.0,21.0,76,0.00,OVC,,0.00,WeatherDisplay:10.37,2013-03-11 18:49:00,
2013-03-11 13:54:00,34.9,28.1,29.00,West,270,20.0,21.0,76,0.00,OVC,,0.00,WeatherDisplay:10.37,2013-03-11 18:54:00,
2013-03-11 14:00:00,34.9,27.8,29.03,West,272,20.0,20.0,75,0.00,OVC,,0.00,WeatherDisplay:10.37,2013-03-11 19:00:00,
2013-03-11 14:09:00,34.9,27.8,29.03,West,272,20.0,20.0,75,0.00,OVC,,0.00,WeatherDisplay:10.37,2013-03-11 19:09:00,
2013-03-11 14:14:00,35.1,27.9,29.03,West,273,21.0,21.0,75,0.00,OVC,,0.00,WeatherDisplay:10.37,2013-03-11 19:14:00,
2013-03-11 14:19:00,35.1,27.9,29.03,West,276,21.0,21.0,75,0.00,OVC,,0.00,WeatherDisplay:10.37,2013-03-11 19:19:00,
2013-03-11 14:24:00,34.9,27.8,29.03,West,271,21.0,21.0,75,0.00,OVC,,0.00,WeatherDisplay:10.37,2013-03-11 19:24:00,
2013-03-11 14:29:00,34.9,27.8,29.03,West,267,21.0,21.0,75,0.00,OVC,,0.00,WeatherDisplay:10.37,2013-03-11 19:29:00,
2013-03-11 14:34:00,34.9,27.8,29.03,West,268,21.0,21.0,75,0.00,OVC,,0.00,WeatherDisplay:10.37,2013-03-11 19:34:00,
2013-03-11 14:39:00,34.9,27.8,29.03,West,266,21.0,21.0,75,0.00,OVC,,0.00,WeatherDisplay:10.37,2013-03-11 19:39:00,
2013-03-11 14:44:00,34.5,27.1,29.03,West,266,21.0,21.0,74,0.00,OVC,,0.00,WeatherDisplay:10.37,2013-03-11 19:44:00,
2013-03-11 14:49:00,34.5,27.4,29.03,West,270,22.0,22.0,75,0.00,OVC,,0.00,WeatherDisplay:10.37,2013-03-11 19:49:00,
2013-03-11 14:54:00,34.5,27.4,29.03,West,268,22.0,22.0,75,0.00,OVC,,0.00,WeatherDisplay:10.37,2013-03-11 19:54:00,
2013-03-11 14:59:00,34.5,27.4,29.03,West,268,21.0,22.0,75,0.00,OVC,,0.00,WeatherDisplay:10.37,2013-03-11 19:59:00,
2013-03-11 15:04:00,34.9,27.8,29.03,West,270,21.0,21.0,75,0.00,OVC,,0.00,WeatherDisplay:10.37,2013-03-11 20:04:00,
2013-03-11 15:09:00,34.9,27.8,29.03,West,270,21.0,21.0,75,0.00,OVC,,0.00,WeatherDisplay:10.37,2013-03-11 20:09:00,
2013-03-11 15:14:00,34.7,27.6,29.03,West,270,21.0,21.0,75,0.00,OVC,,0.00,WeatherDisplay:10.37,2013-03-11 20:14:00,
2013-03-11 15:19:00,34.5,27.4,29.03,West,273,21.0,21.0,75,0.00,OVC,,0.00,WeatherDisplay:10.37,2013-03-11 20:19:00,
2013-03-11 15:24:00,34.5,27.4,29.03,West,277,21.0,21.0,75,0.00,OVC,,0.00,WeatherDisplay:10.37,2013-03-11 20:24:00,
2013-03-11 15:29:00,34.5,27.4,29.03,West,273,21.0,21.0,75,0.00,OVC,,0.00,WeatherDisplay:10.37,2013-03-11 20:29:00,
2013-03-11 15:34:00,34.3,27.2,29.03,West,274,21.0,21.0,75,0.00,OVC,,0.00,WeatherDisplay:10.37,2013-03-11 20:34:00,
2013-03-11 15:39:00,34.5,27.7,29.03,West,273,20.0,21.0,76,0.00,OVC,,0.00,WeatherDisplay:10.37,2013-03-11 20:39:00,
2013-03-11 15:44:00,34.3,27.6,29.03,West,270,20.0,20.0,76,0.00,OVC,,0.00,WeatherDisplay:10.37,2013-03-11 20:44:00,
2013-03-11 15:49:00,34.2,27.4,29.03,West,270,20.0,20.0,76,0.00,OVC,,0.00,WeatherDisplay:10.37,2013-03-11 20:49:00,
2013-03-11 15:54:00,34.2,27.4,29.03,West,270,20.0,20.0,76,0.00,OVC,,0.00,WeatherDisplay:10.37,2013-03-11 20:54:00,
2013-03-11 15:59:00,34.2,27.4,29.06,West,268,20.0,20.0,76,0.00,OVC,,0.00,WeatherDisplay:10.37,2013-03-11 20:59:00,
2013-03-11 16:04:00,34.2,27.4,29.06,West,272,21.0,21.0,76,0.00,OVC,,0.00,WeatherDisplay:10.37,2013-03-11 21:04:00,
2013-03-11 16:09:00,34.2,27.4,29.06,West,275,21.0,21.0,76,0.00,OVC,,0.00,WeatherDisplay:10.37,2013-03-11 21:09:00,
2013-03-11 16:14:00,34.3,27.6,29.06,West,279,20.0,21.0,76,0.00,OVC,,0.00,WeatherDisplay:10.37,2013-03-11 21:14:00,
2013-03-11 16:19:00,34.2,27.1,29.06,WNW,283,21.0,21.0,75,0.00,OVC,,0.00,WeatherDisplay:10.37,2013-03-11 21:19:00,
2013-03-11 16:24:00,34.3,27.2,29.06,WNW,283,21.0,21.0,75,0.00,OVC,,0.00,WeatherDisplay:10.37,2013-03-11 21:24:00,
2013-03-11 16:29:00,34.5,27.7,29.06,WNW,287,20.0,21.0,76,0.00,OVC,,0.00,WeatherDisplay:10.37,2013-03-11 21:29:00,
2013-03-11 16:34:00,34.3,27.2,29.06,WNW,286,20.0,20.0,75,0.00,OVC,,0.00,WeatherDisplay:10.37,2013-03-11 21:34:00,
2013-03-11 16:39:00,34.3,27.2,29.06,WNW,287,20.0,20.0,75,0.00,OVC,,0.00,WeatherDisplay:10.37,2013-03-11 21:39:00,
2013-03-11 16:44:00,34.5,27.4,29.06,WNW,290,18.0,20.0,75,0.00,OVC,,0.00,WeatherDisplay:10.37,2013-03-11 21:44:00,
2013-03-11 16:49:00,34.5,27.4,29.06,WNW,282,18.0,19.0,75,0.00,OVC,,0.00,WeatherDisplay:10.37,2013-03-11 21:49:00,
2013-03-11 16:54:00,34.5,27.4,29.06,WNW,282,18.0,18.0,75,0.00,OVC,,0.00,WeatherDisplay:10.37,2013-03-11 21:54:00,
2013-03-11 16:59:00,34.5,27.4,29.06,WNW,285,17.0,18.0,75,0.00,OVC,,0.00,WeatherDisplay:10.37,2013-03-11 21:59:00,
2013-03-11 17:04:00,34.7,27.6,29.06,West,280,17.0,17.0,75,0.00,OVC,,0.00,WeatherDisplay:10.37,2013-03-11 22:04:00,
2013-03-11 17:09:00,34.7,27.3,29.06,West,279,16.0,17.0,74,0.00,OVC,,0.00,WeatherDisplay:10.37,2013-03-11 22:09:00,
2013-03-11 17:14:00,34.7,27.3,29.06,West,278,16.0,17.0,74,0.00,OVC,,0.00,WeatherDisplay:10.37,2013-03-11 22:14:00,
2013-03-11 17:19:00,34.7,27.3,29.06,West,278,16.0,17.0,74,0.00,OVC,,0.00,WeatherDisplay:10.37,2013-03-11 22:19:00,
2013-03-11 17:24:00,35.1,27.6,29.06,West,278,17.0,17.0,74,0.00,OVC,,0.00,WeatherDisplay:10.37,2013-03-11 22:24:00,
2013-03-11 17:29:00,34.9,27.4,29.06,West,278,16.0,17.0,74,0.00,OVC,,0.00,WeatherDisplay:10.37,2013-03-11 22:29:00,
2013-03-11 17:34:00,34.9,27.4,29.09,West,278,16.0,17.0,74,0.00,OVC,,0.00,WeatherDisplay:10.37,2013-03-11 22:34:00,
2013-03-11 17:39:00,34.7,27.3,29.09,West,278,16.0,16.0,74,0.00,OVC,,0.00,WeatherDisplay:10.37,2013-03-11 22:39:00,
2013-03-11 17:44:00,34.7,27.3,29.09,West,274,16.0,16.0,74,0.00,OVC,,0.00,WeatherDisplay:10.37,2013-03-11 22:44:00,
2013-03-11 17:49:00,34.7,26.9,29.09,West,279,16.0,16.0,73,0.00,OVC,,0.00,WeatherDisplay:10.37,2013-03-11 22:49:00,
2013-03-11 17:54:00,34.7,26.9,29.09,West,278,16.0,16.0,73,0.00,OVC,,0.00,WeatherDisplay:10.37,2013-03-11 22:54:00,
2013-03-11 17:59:00,34.7,26.9,29.09,West,275,16.0,16.0,73,0.00,OVC,,0.00,WeatherDisplay:10.37,2013-03-11 22:59:00,
2013-03-11 18:04:00,34.9,27.1,29.09,West,270,16.0,16.0,73,0.00,OVC,,0.00,WeatherDisplay:10.37,2013-03-11 23:04:00,
2013-03-11 18:09:00,34.9,27.4,29.09,West,270,16.0,16.0,74,0.00,OVC,,0.00,WeatherDisplay:10.37,2013-03-11 23:09:00,
2013-03-11 18:14:00,34.7,27.3,29.09,West,273,15.0,15.0,74,0.00,OVC,,0.00,WeatherDisplay:10.37,2013-03-11 23:14:00,
2013-03-11 18:19:00,34.7,27.3,29.09,West,275,15.0,15.0,74,0.00,OVC,,0.00,WeatherDisplay:10.37,2013-03-11 23:19:00,
2013-03-11 18:24:00,34.5,27.1,29.09,West,277,15.0,15.0,74,0.00,OVC,,0.00,WeatherDisplay:10.37,2013-03-11 23:24:00,
2013-03-11 18:29:00,34.5,27.1,29.09,West,276,15.0,15.0,74,0.00,OVC,,0.00,WeatherDisplay:10.37,2013-03-11 23:29:00,
2013-03-11 18:34:00,34.5,27.1,29.12,West,275,15.0,15.0,74,0.00,OVC,,0.00,WeatherDisplay:10.37,2013-03-11 23:34:00,
2013-03-11 18:39:00,34.5,27.1,29.12,West,275,15.0,15.0,74,0.00,OVC,,0.00,WeatherDisplay:10.37,2013-03-11 23:39:00,
2013-03-11 18:44:00,34.5,27.1,29.12,West,275,15.0,15.0,74,0.00,OVC,,0.00,WeatherDisplay:10.37,2013-03-11 23:44:00,
2013-03-11 18:49:00,34.5,27.4,29.12,West,277,15.0,15.0,75,0.00,OVC,,0.00,WeatherDisplay:10.37,2013-03-11 23:49:00,
2013-03-11 18:54:00,34.5,27.4,29.12,West,275,15.0,15.0,75,0.00,OVC,,0.00,WeatherDisplay:10.37,2013-03-11 23:54:00,
2013-03-11 18:59:00,34.5,27.4,29.12,West,272,14.0,15.0,75,0.00,OVC,,0.00,WeatherDisplay:10.37,2013-03-11 23:59:00,
2013-03-11 19:04:00,34.5,27.4,29.12,West,272,14.0,14.0,75,0.00,OVC,,0.00,WeatherDisplay:10.37,2013-03-12 00:04:00,
2013-03-11 19:09:00,34.5,27.4,29.12,West,275,14.0,14.0,75,0.00,OVC,,0.00,WeatherDisplay:10.37,2013-03-12 00:09:00,
2013-03-11 19:14:00,34.5,27.1,29.12,WNW,282,14.0,14.0,74,0.00,OVC,,0.00,WeatherDisplay:10.37,2013-03-12 00:14:00,
2013-03-11 19:19:00,34.5,27.1,29.12,West,279,14.0,14.0,74,0.00,OVC,,0.00,WeatherDisplay:10.37,2013-03-12 00:19:00,
2013-03-11 19:24:00,34.5,27.1,29.12,West,278,14.0,14.0,74,0.00,OVC,,0.00,WeatherDisplay:10.37,2013-03-12 00:24:00,
2013-03-11 19:29:00,34.5,27.1,29.12,West,277,13.0,14.0,74,0.00,OVC,,0.00,WeatherDisplay:10.37,2013-03-12 00:29:00,
2013-03-11 19:34:00,34.5,27.1,29.15,West,275,13.0,13.0,74,0.00,OVC,,0.00,WeatherDisplay:10.37,2013-03-12 00:34:00,
2013-03-11 19:39:00,34.5,27.1,29.15,West,278,13.0,13.0,74,0.00,OVC,,0.00,WeatherDisplay:10.37,2013-03-12 00:39:00,
2013-03-11 19:44:00,34.5,27.1,29.15,West,278,13.0,13.0,74,0.00,OVC,,0.00,WeatherDisplay:10.37,2013-03-12 00:44:00,
2013-03-11 19:49:00,34.5,27.1,29.15,West,275,12.0,13.0,74,0.00,OVC,,0.00,WeatherDisplay:10.37,2013-03-12 00:49:00,
2013-03-11 19:54:00,34.5,27.1,29.15,West,275,12.0,12.0,74,0.00,OVC,,0.00,WeatherDisplay:10.37,2013-03-12 00:54:00,
2013-03-11 19:59:00,34.5,26.8,29.15,West,277,12.0,12.0,73,0.00,OVC,,0.00,WeatherDisplay:10.37,2013-03-12 00:59:00,
2013-03-11 20:04:00,34.3,26.6,29.15,West,275,12.0,12.0,73,0.00,OVC,,0.00,WeatherDisplay:10.37,2013-03-12 01:04:00,
2013-03-11 20:09:00,34.3,26.6,29.15,West,274,12.0,12.0,73,0.00,OVC,,0.00,WeatherDisplay:10.37,2013-03-12 01:09:00,
2013-03-11 20:14:00,34.3,26.6,29.15,West,279,13.0,13.0,73,0.00,OVC,,0.00,WeatherDisplay:10.37,2013-03-12 01:14:00,
2013-03-11 20:19:00,34.3,26.6,29.15,WNW,283,13.0,13.0,73,0.00,OVC,,0.00,WeatherDisplay:10.37,2013-03-12 01:19:00,
2013-03-11 20:29:00,34.3,26.6,29.15,West,277,13.0,13.0,73,0.00,OVC,,0.00,WeatherDisplay:10.37,2013-03-12 01:29:00,
2013-03-11 20:34:00,34.3,26.6,29.15,West,277,13.0,13.0,73,0.00,OVC,,0.00,WeatherDisplay:10.37,2013-03-12 01:34:00,
2013-03-11 20:39:00,34.3,26.6,29.15,West,278,13.0,13.0,73,0.00,OVC,,0.00,WeatherDisplay:10.37,2013-03-12 01:39:00,
2013-03-11 20:44:00,34.3,26.6,29.15,WNW,282,12.0,12.0,73,0.00,OVC,,0.00,WeatherDisplay:10.37,2013-03-12 01:44:00,
2013-03-11 20:49:00,34.3,26.6,29.15,West,278,12.0,12.0,73,0.00,OVC,,0.00,WeatherDisplay:10.37,2013-03-12 01:49:00,
2013-03-11 20:54:00,34.3,26.6,29.15,West,278,12.0,12.0,73,0.00,OVC,,0.00,WeatherDisplay:10.37,2013-03-12 01:54:00,
2013-03-11 20:59:00,34.3,26.6,29.18,West,280,12.0,13.0,73,0.00,OVC,,0.00,WeatherDisplay:10.37,2013-03-12 01:59:00,
2013-03-11 21:04:00,34.3,26.6,29.18,WNW,283,12.0,12.0,73,0.00,OVC,,0.00,WeatherDisplay:10.37,2013-03-12 02:04:00,
2013-03-11 21:09:00,34.3,26.6,29.18,WNW,283,12.0,12.0,73,0.00,OVC,,0.00,WeatherDisplay:10.37,2013-03-12 02:09:00,
2013-03-11 21:14:00,34.3,26.6,29.18,WNW,285,12.0,12.0,73,0.00,OVC,,0.00,WeatherDisplay:10.37,2013-03-12 02:14:00,
2013-03-11 21:19:00,34.3,26.6,29.18,WNW,285,12.0,12.0,73,0.00,OVC,,0.00,WeatherDisplay:10.37,2013-03-12 02:19:00,
2013-03-11 21:24:00,34.3,26.6,29.18,WNW,284,12.0,12.0,73,0.00,OVC,,0.00,WeatherDisplay:10.37,2013-03-12 02:24:00,
2013-03-11 21:29:00,34.3,26.6,29.18,West,281,12.0,12.0,73,0.00,OVC,,0.00,WeatherDisplay:10.37,2013-03-12 02:29:00,
2013-03-11 21:34:00,34.2,26.7,29.18,West,275,12.0,12.0,74,0.00,OVC,,0.00,WeatherDisplay:10.37,2013-03-12 02:34:00,
2013-03-11 21:39:00,34.2,26.7,29.18,West,277,13.0,13.0,74,0.00,OVC,,0.00,WeatherDisplay:10.37,2013-03-12 02:39:00,
2013-03-11 21:49:00,34.2,26.7,29.18,West,268,13.0,13.0,74,0.00,OVC,,0.00,WeatherDisplay:10.37,2013-03-12 02:49:00,
2013-03-11 21:54:00,34.2,27.1,29.18,West,269,13.0,13.0,75,0.00,OVC,,0.00,WeatherDisplay:10.37,2013-03-12 02:54:00,
2013-03-11 21:59:00,34.2,27.1,29.18,West,275,12.0,13.0,75,0.00,OVC,,0.00,WeatherDisplay:10.37,2013-03-12 02:59:00,
2013-03-11 22:04:00,34.2,27.1,29.18,West,275,12.0,12.0,75,0.00,OVC,,0.00,WeatherDisplay:10.37,2013-03-12 03:04:00,
2013-03-11 22:09:00,34.2,27.1,29.18,West,275,12.0,12.0,75,0.00,OVC,,0.00,WeatherDisplay:10.37,2013-03-12 03:09:00,
2013-03-11 22:14:00,34.2,27.1,29.20,West,277,12.0,12.0,75,0.00,OVC,,0.00,WeatherDisplay:10.37,2013-03-12 03:14:00,
2013-03-11 22:19:00,34.2,27.4,29.18,West,270,10.0,12.0,76,0.00,OVC,,0.00,WeatherDisplay:10.37,2013-03-12 03:19:00,
2013-03-11 22:24:00,34.2,27.4,29.18,West,270,10.0,10.0,76,0.00,OVC,,0.00,WeatherDisplay:10.37,2013-03-12 03:24:00,
2013-03-11 22:29:00,34.2,27.4,29.20,West,273,9.0,10.0,76,0.00,OVC,,0.00,WeatherDisplay:10.37,2013-03-12 03:29:00,
2013-03-11 22:34:00,34.2,27.4,29.20,West,275,9.0,9.0,76,0.00,OVC,,0.00,WeatherDisplay:10.37,2013-03-12 03:34:00,
2013-03-11 22:39:00,34.2,27.4,29.20,West,277,9.0,9.0,76,0.00,OVC,,0.00,WeatherDisplay:10.37,2013-03-12 03:39:00,
2013-03-11 22:44:00,34.0,27.2,29.20,West,276,9.0,9.0,76,0.00,OVC,,0.00,WeatherDisplay:10.37,2013-03-12 03:44:00,
2013-03-11 22:49:00,34.0,26.9,29.20,West,281,9.0,10.0,75,0.00,OVC,,0.00,WeatherDisplay:10.37,2013-03-12 03:49:00,
2013-03-11 22:54:00,34.0,26.9,29.20,West,281,9.0,10.0,75,0.00,OVC,,0.00,WeatherDisplay:10.37,2013-03-12 03:54:00,
2013-03-11 22:59:00,34.0,26.9,29.20,West,280,9.0,10.0,75,0.00,OVC,,0.00,WeatherDisplay:10.37,2013-03-12 03:59:00,
2013-03-11 23:04:00,34.0,26.9,29.20,West,279,9.0,10.0,75,0.00,OVC,,0.00,WeatherDisplay:10.37,2013-03-12 04:04:00,
2013-03-11 23:09:00,34.0,26.9,29.20,West,280,10.0,10.0,75,0.00,OVC,,0.00,WeatherDisplay:10.37,2013-03-12 04:09:00,
2013-03-11 23:14:00,33.8,26.7,29.20,West,280,9.0,10.0,75,0.00,OVC,,0.00,WeatherDisplay:10.37,2013-03-12 04:14:00,
2013-03-11 23:19:00,33.8,26.7,29.20,West,280,10.0,10.0,75,0.00,OVC,,0.00,WeatherDisplay:10.37,2013-03-12 04:19:00,
2013-03-11 23:24:00,33.8,26.4,29.20,West,280,10.0,10.0,74,0.00,OVC,,0.00,WeatherDisplay:10.37,2013-03-12 04:24:00,
2013-03-11 23:29:00,33.6,26.5,29.20,WNW,282,10.0,10.0,75,0.00,OVC,,0.00,WeatherDisplay:10.37,2013-03-12 04:29:00,
2013-03-11 23:34:00,33.4,26.4,29.20,West,281,12.0,12.0,75,0.00,OVC,,0.00,WeatherDisplay:10.37,2013-03-12 04:34:00,
2013-03-11 23:39:00,33.4,26.0,29.20,WNW,282,12.0,12.0,74,0.00,OVC,,0.00,WeatherDisplay:10.37,2013-03-12 04:39:00,
2013-03-11 23:44:00,33.4,26.0,29.20,West,281,12.0,12.0,74,0.00,OVC,,0.00,WeatherDisplay:10.37,2013-03-12 04:44:00,
2013-03-11 23:49:00,33.4,25.7,29.20,West,281,12.0,12.0,73,0.00,OVC,,0.00,WeatherDisplay:10.37,2013-03-12 04:49:00,
2013-03-11 23:54:00,33.3,25.5,29.20,West,281,12.0,12.0,73,0.00,OVC,,0.00,WeatherDisplay:10.37,2013-03-12 04:54:00,
2013-03-11 23:59:00,33.4,25.7,29.20,West,276,12.0,12.0,73,0.00,OVC,,0.00,WeatherDisplay:10.37,2013-03-12 04:59:00,